createdAt,value
2023-05-09T00:00:14.680Z,94.79
2023-05-09T00:01:14.694Z,94.79
2023-05-09T00:02:14.883Z,95.15
2023-05-09T00:03:14.729Z,95.15
2023-05-09T00:04:14.707Z,95.15
2023-05-09T00:05:15.001Z,94.59
2023-05-09T00:06:14.670Z,94.84
2023-05-09T00:07:14.689Z,95.45
2023-05-09T00:08:14.680Z,95.04
2023-05-09T00:09:14.685Z,94.84
2023-05-09T00:10:14.675Z,95.00
2023-05-09T00:11:14.677Z,94.49
2023-05-09T00:12:14.675Z,94.59
2023-05-09T00:13:14.750Z,94.64
2023-05-09T00:14:14.667Z,95.15
2023-05-09T00:15:14.903Z,94.79
2023-05-09T00:16:14.716Z,95.25
2023-05-09T00:17:14.662Z,95.04
2023-05-09T00:18:14.779Z,94.84
2023-05-09T00:19:14.664Z,94.49
2023-05-09T00:20:14.728Z,94.70
2023-05-09T00:21:14.662Z,94.84
2023-05-09T00:22:14.670Z,94.70
2023-05-09T00:23:14.658Z,94.79
2023-05-09T00:24:14.662Z,94.70
2023-05-09T00:25:14.949Z,94.59
2023-05-09T00:26:14.649Z,94.59
2023-05-09T00:27:14.662Z,94.70
2023-05-09T00:28:14.667Z,94.70
2023-05-09T00:29:14.676Z,94.38
2023-05-09T00:30:14.647Z,94.38
2023-05-09T00:31:14.655Z,94.38
2023-05-09T00:32:14.733Z,94.79
2023-05-09T00:33:14.648Z,94.38
2023-05-09T00:34:14.774Z,94.38
2023-05-09T00:35:15.031Z,94.29
2023-05-09T00:36:14.642Z,94.59
2023-05-09T00:37:14.647Z,94.79
2023-05-09T00:38:14.634Z,94.79
2023-05-09T00:39:14.637Z,94.29
2023-05-09T00:40:14.632Z,94.29
2023-05-09T00:41:14.649Z,94.70
2023-05-09T00:42:14.639Z,94.79
2023-05-09T00:43:14.648Z,93.98
2023-05-09T00:44:14.661Z,93.98
2023-05-09T00:45:14.835Z,93.88
2023-05-09T00:46:14.659Z,93.98
2023-05-09T00:47:14.650Z,94.38
2023-05-09T00:48:14.625Z,94.74
2023-05-09T00:49:14.627Z,94.59
2023-05-09T00:50:14.747Z,94.79
2023-05-09T00:51:14.637Z,94.79
2023-05-09T00:52:14.618Z,94.94
2023-05-09T00:53:14.618Z,94.79
2023-05-09T00:54:14.620Z,94.84
2023-05-09T00:55:14.756Z,94.84
2023-05-09T00:56:14.624Z,94.74
2023-05-09T00:57:14.628Z,94.43
2023-05-09T00:58:14.616Z,94.29
2023-05-09T00:59:16.282Z,94.84
2023-05-09T01:00:14.621Z,94.43
2023-05-09T01:01:14.636Z,94.33
2023-05-09T01:02:14.639Z,94.74
2023-05-09T01:03:14.705Z,94.33
2023-05-09T01:04:14.607Z,94.33
2023-05-09T01:05:15.123Z,93.98
2023-05-09T01:06:14.724Z,94.12
2023-05-09T01:07:14.603Z,94.43
2023-05-09T01:08:14.602Z,94.84
2023-05-09T01:09:14.598Z,94.33
2023-05-09T01:10:14.606Z,94.84
2023-05-09T01:11:14.603Z,94.84
2023-05-09T01:12:14.596Z,94.94
2023-05-09T01:13:14.648Z,94.23
2023-05-09T01:14:14.593Z,94.12
2023-05-09T01:15:14.831Z,94.33
2023-05-09T01:16:14.627Z,94.23
2023-05-09T01:17:14.593Z,93.98
2023-05-09T01:18:14.675Z,94.02
2023-05-09T01:19:14.592Z,93.98
2023-05-09T01:20:14.610Z,94.43
2023-05-09T01:21:14.582Z,94.02
2023-05-09T01:22:14.707Z,94.23
2023-05-09T01:23:14.579Z,94.02
2023-05-09T01:24:14.597Z,93.92
2023-05-09T01:25:14.818Z,93.92
2023-05-09T01:26:14.580Z,94.12
2023-05-09T01:27:14.570Z,93.92
2023-05-09T01:28:14.584Z,94.07
2023-05-09T01:29:14.568Z,93.96
2023-05-09T01:30:14.574Z,93.86
2023-05-09T01:31:14.579Z,94.17
2023-05-09T01:32:14.574Z,93.96
2023-05-09T01:33:14.564Z,93.05
2023-05-09T01:34:14.564Z,93.62
2023-05-09T01:35:14.894Z,93.76
2023-05-09T01:36:14.567Z,93.66
2023-05-09T01:37:14.563Z,93.05
2023-05-09T01:38:14.680Z,94.17
2023-05-09T01:39:14.585Z,92.94
2023-05-09T01:40:14.556Z,93.76
2023-05-09T01:41:14.558Z,93.86
2023-05-09T01:42:14.557Z,93.66
2023-05-09T01:43:14.552Z,93.76
2023-05-09T01:44:14.588Z,94.07
2023-05-09T01:45:14.766Z,93.55
2023-05-09T01:46:14.607Z,92.90
2023-05-09T01:47:14.541Z,93.21
2023-05-09T01:48:14.552Z,92.64
2023-05-09T01:49:14.538Z,92.84
2023-05-09T01:50:14.550Z,92.64
2023-05-09T01:51:14.541Z,92.84
2023-05-09T01:52:14.550Z,93.15
2023-05-09T01:53:14.533Z,92.64
2023-05-09T01:54:14.649Z,93.15
2023-05-09T01:55:14.732Z,92.54
2023-05-09T01:56:14.535Z,92.64
2023-05-09T01:57:14.541Z,92.43
2023-05-09T01:58:14.533Z,92.94
2023-05-09T01:59:14.532Z,92.23
2023-05-09T02:00:14.531Z,92.02
2023-05-09T02:01:14.587Z,92.74
2023-05-09T02:02:14.571Z,92.08
2023-05-09T02:03:14.593Z,91.67
2023-05-09T02:04:14.524Z,91.72
2023-05-09T02:05:14.725Z,91.61
2023-05-09T02:06:14.515Z,91.47
2023-05-09T02:07:14.531Z,91.31
2023-05-09T02:08:14.518Z,91.20
2023-05-09T02:09:14.519Z,91.41
2023-05-09T02:10:14.655Z,90.66
2023-05-09T02:11:14.509Z,90.75
2023-05-09T02:12:14.516Z,90.59
2023-05-09T02:13:14.571Z,90.45
2023-05-09T02:14:14.504Z,90.45
2023-05-09T02:15:14.874Z,90.66
2023-05-09T02:16:14.535Z,90.75
2023-05-09T02:17:14.506Z,90.45
2023-05-09T02:18:14.506Z,89.94
2023-05-09T02:19:14.492Z,89.94
2023-05-09T02:20:14.510Z,89.63
2023-05-09T02:21:14.632Z,89.73
2023-05-09T02:22:14.494Z,89.98
2023-05-09T02:23:14.490Z,89.94
2023-05-09T02:24:14.508Z,89.84
2023-05-09T02:25:14.682Z,89.90
2023-05-09T02:26:14.610Z,89.84
2023-05-09T02:27:14.488Z,89.94
2023-05-09T02:28:14.496Z,89.69
2023-05-09T02:29:14.486Z,89.63
2023-05-09T02:30:14.485Z,89.53
2023-05-09T02:31:14.477Z,89.53
2023-05-09T02:32:14.525Z,89.43
2023-05-09T02:33:14.518Z,89.12
2023-05-09T02:34:14.482Z,89.28
2023-05-09T02:35:14.661Z,89.08
2023-05-09T02:36:14.470Z,89.39
2023-05-09T02:37:14.469Z,89.43
2023-05-09T02:38:14.485Z,89.18
2023-05-09T02:39:14.464Z,89.43
2023-05-09T02:40:14.472Z,89.28
2023-05-09T02:41:14.487Z,88.98
2023-05-09T02:42:14.623Z,89.02
2023-05-09T02:43:14.458Z,88.98
2023-05-09T02:44:14.464Z,88.82
2023-05-09T02:45:14.617Z,89.08
2023-05-09T02:46:14.489Z,88.92
2023-05-09T02:47:14.468Z,89.23
2023-05-09T02:48:14.508Z,89.12
2023-05-09T02:49:26.726Z,88.92
2023-05-09T02:50:14.451Z,89.08
2023-05-09T02:51:14.449Z,89.23
2023-05-09T02:52:14.465Z,89.49
2023-05-09T02:53:14.446Z,89.32
2023-05-09T02:54:14.448Z,89.28
2023-05-09T02:55:14.633Z,89.02
2023-05-09T02:56:14.496Z,89.32
2023-05-09T02:57:14.445Z,89.78
2023-05-09T02:58:15.206Z,90.08
2023-05-09T02:59:14.437Z,89.78
2023-05-09T03:00:14.449Z,89.84
2023-05-09T03:01:14.475Z,89.94
2023-05-09T03:02:14.440Z,89.78
2023-05-09T03:03:14.558Z,90.39
2023-05-09T03:04:14.459Z,90.49
2023-05-09T03:05:14.633Z,90.29
2023-05-09T03:06:14.468Z,90.49
2023-05-09T03:07:14.428Z,90.80
2023-05-09T03:08:14.431Z,91.35
2023-05-09T03:09:14.419Z,91.56
2023-05-09T03:10:14.425Z,91.86
2023-05-09T03:11:14.423Z,93.09
2023-05-09T03:12:14.420Z,92.07
2023-05-09T03:13:14.435Z,92.52
2023-05-09T03:14:14.539Z,93.03
2023-05-09T03:15:14.563Z,93.18
2023-05-09T03:16:14.488Z,92.62
2023-05-09T03:17:14.415Z,92.93
2023-05-09T03:18:14.417Z,93.13
2023-05-09T03:19:14.405Z,92.87
2023-05-09T03:20:14.419Z,93.18
2023-05-09T03:21:14.406Z,93.59
2023-05-09T03:22:14.404Z,93.89
2023-05-09T03:23:14.408Z,93.59
2023-05-09T03:24:14.400Z,93.69
2023-05-09T03:25:14.663Z,93.93
2023-05-09T03:26:14.409Z,92.97
2023-05-09T03:27:14.391Z,93.73
2023-05-09T03:28:14.398Z,94.24
2023-05-09T03:29:14.397Z,94.75
2023-05-09T03:30:14.543Z,94.65
2023-05-09T03:31:14.425Z,95.06
2023-05-09T03:32:15.233Z,94.90
2023-05-09T03:33:14.385Z,95.10
2023-05-09T03:34:14.385Z,95.31
2023-05-09T03:35:14.534Z,96.54
2023-05-09T03:36:14.396Z,95.62
2023-05-09T03:37:14.391Z,96.44
2023-05-09T03:38:14.407Z,96.23
2023-05-09T03:39:14.377Z,96.33
2023-05-09T03:40:14.383Z,96.17
2023-05-09T03:41:14.372Z,96.38
2023-05-09T03:42:14.384Z,96.64
2023-05-09T03:43:14.372Z,96.54
2023-05-09T03:44:14.389Z,96.58
2023-05-09T03:45:14.578Z,96.84
2023-05-09T03:46:14.515Z,97.20
2023-05-09T03:47:14.361Z,97.86
2023-05-09T03:48:14.383Z,98.02
2023-05-09T03:49:14.360Z,97.81
2023-05-09T03:50:14.369Z,97.34
2023-05-09T03:51:14.358Z,97.91
2023-05-09T03:52:14.360Z,98.22
2023-05-09T03:53:14.366Z,98.22
2023-05-09T03:54:14.361Z,97.86
2023-05-09T03:55:14.497Z,98.16
2023-05-09T03:56:14.353Z,98.02
2023-05-09T03:57:14.351Z,98.02
2023-05-09T03:58:14.352Z,98.12
2023-05-09T03:59:14.345Z,98.12
2023-05-09T04:00:14.374Z,98.63
2023-05-09T04:01:14.335Z,98.12
2023-05-09T04:02:14.518Z,98.74
2023-05-09T04:03:14.448Z,98.83
2023-05-09T04:04:14.397Z,98.37
2023-05-09T04:05:14.550Z,98.33
2023-05-09T04:06:14.334Z,99.04
2023-05-09T04:07:14.344Z,98.88
2023-05-09T04:08:14.347Z,99.25
2023-05-09T04:09:14.328Z,99.09
2023-05-09T04:10:14.337Z,99.50
2023-05-09T04:11:14.326Z,99.04
2023-05-09T04:12:14.325Z,99.19
2023-05-09T04:13:14.348Z,99.19
2023-05-09T04:14:14.323Z,99.19
2023-05-09T04:15:14.520Z,99.04
2023-05-09T04:16:14.398Z,99.04
2023-05-09T04:17:14.310Z,99.04
2023-05-09T04:18:14.441Z,99.45
2023-05-09T04:19:14.358Z,99.40
2023-05-09T04:20:14.348Z,99.55
2023-05-09T04:21:14.309Z,99.29
2023-05-09T04:22:14.308Z,99.04
2023-05-09T04:23:14.309Z,99.40
2023-05-09T04:24:14.307Z,99.35
2023-05-09T04:25:14.543Z,98.94
2023-05-09T04:26:14.299Z,99.29
2023-05-09T04:27:14.290Z,99.04
2023-05-09T04:28:14.295Z,99.35
2023-05-09T04:29:14.307Z,99.35
2023-05-09T04:30:14.288Z,99.35
2023-05-09T04:31:14.343Z,98.74
2023-05-09T04:32:14.365Z,99.41
2023-05-09T04:33:14.288Z,98.83
2023-05-09T04:34:14.408Z,98.90
2023-05-09T04:35:14.687Z,98.99
2023-05-09T04:36:14.281Z,99.10
2023-05-09T04:37:14.288Z,99.30
2023-05-09T04:38:14.278Z,99.20
2023-05-09T04:39:14.274Z,99.51
2023-05-09T04:40:14.271Z,98.95
2023-05-09T04:41:14.279Z,98.99
2023-05-09T04:42:14.267Z,99.15
2023-05-09T04:43:14.267Z,99.05
2023-05-09T04:44:14.270Z,99.15
2023-05-09T04:45:14.480Z,99.15
2023-05-09T04:46:14.315Z,99.26
2023-05-09T04:47:14.265Z,98.85
2023-05-09T04:48:14.265Z,99.15
2023-05-09T04:49:14.250Z,99.11
2023-05-09T04:50:14.427Z,99.15
2023-05-09T04:51:14.250Z,99.15
2023-05-09T04:52:14.258Z,99.15
2023-05-09T04:53:14.243Z,99.21
2023-05-09T04:54:14.252Z,99.62
2023-05-09T04:55:14.529Z,99.52
2023-05-09T04:56:14.243Z,99.62
2023-05-09T04:57:18.563Z,98.96
2023-05-09T04:58:14.232Z,98.86
2023-05-09T04:59:14.233Z,98.65
2023-05-09T05:00:14.234Z,99.16
2023-05-09T05:01:14.275Z,98.55
2023-05-09T05:02:14.254Z,99.16
2023-05-09T05:03:14.230Z,99.16
2023-05-09T05:04:14.299Z,98.14
2023-05-09T05:05:14.244Z,98.45
2023-05-09T05:06:14.386Z,97.79
2023-05-09T05:07:14.221Z,97.58
2023-05-09T05:08:14.217Z,96.83
2023-05-09T05:09:14.220Z,97.13
2023-05-09T05:10:14.224Z,96.83
2023-05-09T05:11:14.211Z,96.42
2023-05-09T05:12:14.209Z,96.47
2023-05-09T05:13:14.244Z,96.06
2023-05-09T05:14:14.214Z,96.27
2023-05-09T05:15:14.453Z,95.86
2023-05-09T05:16:14.284Z,96.02
2023-05-09T05:17:14.209Z,94.90
2023-05-09T05:18:14.225Z,94.29
2023-05-09T05:19:14.211Z,94.59
2023-05-09T05:20:14.203Z,94.59
2023-05-09T05:21:14.200Z,94.75
2023-05-09T05:22:14.325Z,93.93
2023-05-09T05:23:14.198Z,94.14
2023-05-09T05:24:14.196Z,94.04
2023-05-09T05:25:14.430Z,93.02
2023-05-09T05:26:14.181Z,93.28
2023-05-09T05:27:14.193Z,93.28
2023-05-09T05:28:14.186Z,92.83
2023-05-09T05:29:14.186Z,92.93
2023-05-09T05:30:14.216Z,91.71
2023-05-09T05:31:14.202Z,92.32
2023-05-09T05:32:14.181Z,92.72
2023-05-09T05:33:14.180Z,92.42
2023-05-09T05:34:14.171Z,92.48
2023-05-09T05:35:14.378Z,91.62
2023-05-09T05:36:14.169Z,90.34
2023-05-09T05:37:14.178Z,89.89
2023-05-09T05:38:14.289Z,90.40
2023-05-09T05:39:14.220Z,89.99
2023-05-09T05:40:14.171Z,89.24
2023-05-09T05:41:14.165Z,89.34
2023-05-09T05:42:14.152Z,89.54
2023-05-09T05:43:14.161Z,88.18
2023-05-09T05:44:14.156Z,88.48
2023-05-09T05:45:14.298Z,88.48
2023-05-09T05:46:14.269Z,88.39
2023-05-09T05:47:14.162Z,87.12
2023-05-09T05:48:14.148Z,87.02
2023-05-09T05:49:14.150Z,87.38
2023-05-09T05:50:14.143Z,86.37
2023-05-09T05:51:14.147Z,87.18
2023-05-09T05:52:14.137Z,87.59
2023-05-09T05:53:14.160Z,88.30
2023-05-09T05:54:14.175Z,87.18
2023-05-09T05:55:14.382Z,86.77
2023-05-09T05:56:14.137Z,85.66
2023-05-09T05:57:14.144Z,86.27
2023-05-09T05:58:14.130Z,86.07
2023-05-09T05:59:14.140Z,86.07
2023-05-09T06:00:14.138Z,85.76
2023-05-09T06:01:14.137Z,85.66
2023-05-09T06:02:14.174Z,86.57
2023-05-09T06:03:14.310Z,86.33
2023-05-09T06:04:14.176Z,85.78
2023-05-09T06:05:14.396Z,84.40
2023-05-09T06:06:14.122Z,84.97
2023-05-09T06:07:14.131Z,84.77
2023-05-09T06:08:14.129Z,85.07
2023-05-09T06:09:14.125Z,86.29
2023-05-09T06:10:14.243Z,84.93
2023-05-09T06:11:14.128Z,84.42
2023-05-09T06:12:14.119Z,84.32
2023-05-09T06:13:14.150Z,84.83
2023-05-09T06:14:14.117Z,84.32
2023-05-09T06:15:14.228Z,84.42
2023-05-09T06:16:19.337Z,84.12
2023-05-09T06:17:14.172Z,84.22
2023-05-09T06:18:14.108Z,83.37
2023-05-09T06:19:14.108Z,83.37
2023-05-09T06:20:14.106Z,83.26
2023-05-09T06:21:14.118Z,82.29
2023-05-09T06:22:14.106Z,83.20
2023-05-09T06:23:14.112Z,83.37
2023-05-09T06:24:20.107Z,83.17
2023-05-09T06:25:14.372Z,83.37
2023-05-09T06:26:14.223Z,82.15
2023-05-09T06:27:14.114Z,82.62
2023-05-09T06:28:14.102Z,83.12
2023-05-09T06:29:14.107Z,82.01
2023-05-09T06:30:24.482Z,81.60
2023-05-09T06:31:14.157Z,82.89
2023-05-09T06:32:14.108Z,82.89
2023-05-09T06:33:14.100Z,82.44
2023-05-09T06:34:14.104Z,82.50
2023-05-09T06:35:14.330Z,80.88
2023-05-09T06:36:14.097Z,80.92
2023-05-09T06:37:14.099Z,80.52
2023-05-09T06:38:14.101Z,80.92
2023-05-09T06:39:14.099Z,81.90
2023-05-09T06:40:14.107Z,80.98
2023-05-09T06:41:14.126Z,80.78
2023-05-09T06:42:14.234Z,81.05
2023-05-09T06:43:14.106Z,80.94
2023-05-09T06:44:14.098Z,81.11
2023-05-09T06:45:14.313Z,81.21
2023-05-09T06:46:14.121Z,81.11
2023-05-09T06:47:14.095Z,80.30
2023-05-09T06:48:14.095Z,79.90
2023-05-09T06:49:14.105Z,80.20
2023-05-09T06:50:14.093Z,79.93
2023-05-09T06:51:14.099Z,80.30
2023-05-09T06:52:14.090Z,79.29
2023-05-09T06:53:14.097Z,79.02
2023-05-09T06:54:14.104Z,79.39
2023-05-09T06:55:14.263Z,79.29
2023-05-09T06:56:14.091Z,79.59
2023-05-09T06:57:14.094Z,79.69
2023-05-09T06:58:14.205Z,79.29
2023-05-09T06:59:14.085Z,79.96
2023-05-09T07:00:14.103Z,79.41
2023-05-09T07:01:14.143Z,78.64
2023-05-09T07:02:14.097Z,78.61
2023-05-09T07:03:14.130Z,78.81
2023-05-09T07:04:14.091Z,76.89
2023-05-09T07:05:14.368Z,76.48
2023-05-09T07:06:14.093Z,77.26
2023-05-09T07:07:14.095Z,77.56
2023-05-09T07:08:14.085Z,76.35
2023-05-09T07:09:14.092Z,77.15
2023-05-09T07:10:14.097Z,76.95
2023-05-09T07:11:14.106Z,75.91
2023-05-09T07:12:14.090Z,75.71
2023-05-09T07:13:14.151Z,75.81
2023-05-09T07:14:14.218Z,75.98
2023-05-09T07:15:18.552Z,75.54
2023-05-09T07:16:14.126Z,76.14
2023-05-09T07:17:23.031Z,74.93
2023-05-09T07:18:14.088Z,74.73
2023-05-09T07:19:14.100Z,73.82
2023-05-09T07:20:14.090Z,74.52
2023-05-09T07:21:14.087Z,74.52
2023-05-09T07:22:14.103Z,73.92
2023-05-09T07:23:14.092Z,73.58
2023-05-09T07:24:14.120Z,72.94
2023-05-09T07:25:14.234Z,72.54
2023-05-09T07:26:14.088Z,72.74
2023-05-09T07:27:14.138Z,71.13
2023-05-09T07:28:14.095Z,71.70
2023-05-09T07:29:14.103Z,70.96
2023-05-09T07:30:14.411Z,71.90
2023-05-09T07:31:14.126Z,70.06
2023-05-09T07:32:14.128Z,67.88
2023-05-09T07:33:14.131Z,68.52
2023-05-09T07:34:14.091Z,68.35
2023-05-09T07:35:14.270Z,67.72
2023-05-09T07:36:14.094Z,67.22
2023-05-09T07:37:15.425Z,66.09
2023-05-09T07:38:14.095Z,65.16
2023-05-09T07:39:14.104Z,64.06
2023-05-09T07:40:14.521Z,63.50
2023-05-09T07:41:14.124Z,63.00
2023-05-09T07:42:14.110Z,62.94
2023-05-09T07:43:14.097Z,62.12
2023-05-09T07:44:14.096Z,62.59
2023-05-09T07:45:14.326Z,60.09
2023-05-09T07:46:14.234Z,59.85
2023-05-09T07:47:14.109Z,61.02
2023-05-09T07:48:14.100Z,60.19
2023-05-09T07:49:14.115Z,61.06
2023-05-09T07:50:14.102Z,60.24
2023-05-09T07:51:14.109Z,59.38
2023-05-09T07:52:14.113Z,58.53
2023-05-09T07:53:14.158Z,58.39
2023-05-09T07:54:14.114Z,59.78
2023-05-09T07:55:14.355Z,58.92
2023-05-09T07:56:14.139Z,58.20
2023-05-09T07:57:14.136Z,57.23
2023-05-09T07:58:14.138Z,57.25
2023-05-09T07:59:14.126Z,58.07
2023-05-09T08:00:14.126Z,57.36
2023-05-09T08:01:14.143Z,58.61
2023-05-09T08:02:14.303Z,59.49
2023-05-09T08:03:14.290Z,59.89
2023-05-09T08:04:14.181Z,59.89
2023-05-09T08:05:14.446Z,59.72
2023-05-09T08:06:14.147Z,59.94
2023-05-09T08:07:14.164Z,59.36
2023-05-09T08:08:14.156Z,59.79
2023-05-09T08:09:14.173Z,59.92
2023-05-09T08:10:14.161Z,59.72
2023-05-09T08:11:14.167Z,59.89
2023-05-09T08:12:14.172Z,59.58
2023-05-09T08:13:14.203Z,57.58
2023-05-09T08:14:15.614Z,56.19
2023-05-09T08:15:14.405Z,55.42
2023-05-09T08:16:14.268Z,56.12
2023-05-09T08:17:14.197Z,56.51
2023-05-09T08:18:14.348Z,56.53
2023-05-09T08:19:14.209Z,57.15
2023-05-09T08:20:14.213Z,56.67
2023-05-09T08:21:14.254Z,56.87
2023-05-09T08:22:14.221Z,59.19
2023-05-09T08:23:14.247Z,57.92
2023-05-09T08:24:14.240Z,58.43
2023-05-09T08:25:17.064Z,56.95
2023-05-09T08:26:14.258Z,55.98
2023-05-09T08:27:14.270Z,55.36
2023-05-09T08:28:14.263Z,56.05
2023-05-09T08:29:14.276Z,56.48
2023-05-09T08:30:14.330Z,56.01
2023-05-09T08:31:14.344Z,56.08
2023-05-09T08:32:14.325Z,55.19
2023-05-09T08:33:14.365Z,56.66
2023-05-09T08:34:14.435Z,56.13
2023-05-09T08:35:14.809Z,56.15
2023-05-09T08:36:14.333Z,55.83
2023-05-09T08:37:15.249Z,55.06
2023-05-09T08:38:14.344Z,54.77
2023-05-09T08:39:14.354Z,55.81
2023-05-09T08:40:14.536Z,56.59
2023-05-09T08:41:14.377Z,57.34
2023-05-09T08:42:14.382Z,57.04
2023-05-09T08:43:14.400Z,56.38
2023-05-09T08:44:14.403Z,56.98
2023-05-09T08:45:14.420Z,56.43
2023-05-09T08:46:14.532Z,56.60
2023-05-09T08:47:14.433Z,54.10
2023-05-09T08:48:14.445Z,54.12
2023-05-09T08:49:14.454Z,54.76
2023-05-09T08:50:14.873Z,55.18
2023-05-09T08:51:14.477Z,54.29
2023-05-09T08:52:14.487Z,55.08
2023-05-09T08:53:14.494Z,55.46
2023-05-09T08:54:14.509Z,55.63
2023-05-09T08:55:14.520Z,56.52
2023-05-09T08:56:14.539Z,55.55
2023-05-09T08:57:14.557Z,53.08
2023-05-09T08:58:14.548Z,53.75
2023-05-09T08:59:14.563Z,54.88
2023-05-09T09:00:15.981Z,52.51
2023-05-09T09:01:14.601Z,52.51
2023-05-09T09:02:14.720Z,52.91
2023-05-09T09:03:14.670Z,53.99
2023-05-09T09:04:14.798Z,53.35
2023-05-09T09:05:28.633Z,53.64
2023-05-09T09:06:14.761Z,52.31
2023-05-09T09:07:14.665Z,51.69
2023-05-09T09:08:14.672Z,52.23
2023-05-09T09:09:14.695Z,54.30
2023-05-09T09:10:15.078Z,53.02
2023-05-09T09:11:14.718Z,53.57
2023-05-09T09:12:14.729Z,53.72
2023-05-09T09:13:14.861Z,53.80
2023-05-09T09:14:14.758Z,55.30
2023-05-09T09:15:14.780Z,54.77
2023-05-09T09:16:14.810Z,55.09
2023-05-09T09:17:14.798Z,55.61
2023-05-09T09:18:14.816Z,55.09
2023-05-09T09:19:14.827Z,55.41
2023-05-09T09:20:15.011Z,55.51
2023-05-09T09:21:14.855Z,55.68
2023-05-09T09:22:15.011Z,55.04
2023-05-09T09:23:14.883Z,55.30
2023-05-09T09:24:14.906Z,54.71
2023-05-09T09:25:14.939Z,53.77
2023-05-09T09:26:14.931Z,54.27
2023-05-09T09:27:14.948Z,52.91
2023-05-09T09:28:20.021Z,54.69
2023-05-09T09:29:14.983Z,53.33
2023-05-09T09:30:15.351Z,53.15
2023-05-09T09:31:17.130Z,51.28
2023-05-09T09:32:15.073Z,51.25
2023-05-09T09:33:15.073Z,52.21
2023-05-09T09:34:15.066Z,50.88
2023-05-09T09:35:15.063Z,50.26
2023-05-09T09:36:15.080Z,50.98
2023-05-09T09:37:15.106Z,53.19
2023-05-09T09:38:15.235Z,51.91
2023-05-09T09:39:15.128Z,49.90
2023-05-09T09:40:15.475Z,50.44
2023-05-09T09:41:15.169Z,50.83
2023-05-09T09:42:15.178Z,51.67
2023-05-09T09:43:15.190Z,52.48
2023-05-09T09:44:15.207Z,50.09
2023-05-09T09:45:15.240Z,48.25
2023-05-09T09:46:15.263Z,49.33
2023-05-09T09:47:15.254Z,50.19
2023-05-09T09:48:15.284Z,49.16
2023-05-09T09:49:15.289Z,48.25
2023-05-09T09:50:15.522Z,48.30
2023-05-09T09:51:15.339Z,47.16
2023-05-09T09:52:15.351Z,48.57
2023-05-09T09:53:15.364Z,49.60
2023-05-09T09:54:15.502Z,49.60
2023-05-09T09:55:15.399Z,49.80
2023-05-09T09:56:15.416Z,48.54
2023-05-09T09:57:15.457Z,49.95
2023-05-09T09:58:15.453Z,48.56
2023-05-09T09:59:15.474Z,48.49
2023-05-09T10:00:15.672Z,50.02
2023-05-09T10:01:15.556Z,48.07
2023-05-09T10:02:15.522Z,47.32
2023-05-09T10:03:15.694Z,47.85
2023-05-09T10:04:15.606Z,48.44
2023-05-09T10:05:15.574Z,47.36
2023-05-09T10:06:15.597Z,46.31
2023-05-09T10:07:15.624Z,46.97
2023-05-09T10:08:15.648Z,47.15
2023-05-09T10:09:15.647Z,46.59
2023-05-09T10:10:16.298Z,47.47
2023-05-09T10:11:15.684Z,45.69
2023-05-09T10:12:15.708Z,45.76
2023-05-09T10:13:15.791Z,46.26
2023-05-09T10:14:15.740Z,47.64
2023-05-09T10:15:15.764Z,47.39
2023-05-09T10:16:16.104Z,47.88
2023-05-09T10:17:15.931Z,47.07
2023-05-09T10:18:15.892Z,48.94
2023-05-09T10:19:15.834Z,46.24
2023-05-09T10:20:16.088Z,47.17
2023-05-09T10:21:15.900Z,45.49
2023-05-09T10:22:15.895Z,46.10
2023-05-09T10:23:15.919Z,46.20
2023-05-09T10:24:15.934Z,46.09
2023-05-09T10:25:16.160Z,46.26
2023-05-09T10:26:16.169Z,45.92
2023-05-09T10:27:16.006Z,46.33
2023-05-09T10:28:16.009Z,45.92
2023-05-09T10:29:16.027Z,46.21
2023-05-09T10:30:16.057Z,47.75
2023-05-09T10:31:16.084Z,48.54
2023-05-09T10:32:16.090Z,46.94
2023-05-09T10:33:16.110Z,47.31
2023-05-09T10:34:16.136Z,46.18
2023-05-09T10:35:16.474Z,48.79
2023-05-09T10:36:16.165Z,48.81
2023-05-09T10:37:16.183Z,48.69
2023-05-09T10:38:16.208Z,47.97
2023-05-09T10:39:16.222Z,47.14
2023-05-09T10:40:16.248Z,45.94
2023-05-09T10:41:16.264Z,48.05
2023-05-09T10:42:16.399Z,46.97
2023-05-09T10:43:16.308Z,47.69
2023-05-09T10:44:16.331Z,46.27
2023-05-09T10:45:16.585Z,47.03
2023-05-09T10:46:16.515Z,47.08
2023-05-09T10:47:16.383Z,46.02
2023-05-09T10:48:16.405Z,48.69
2023-05-09T10:49:16.427Z,48.89
2023-05-09T10:50:16.465Z,47.09
2023-05-09T10:51:16.525Z,47.36
2023-05-09T10:52:16.484Z,45.01
2023-05-09T10:53:16.512Z,45.92
2023-05-09T10:54:16.569Z,46.75
2023-05-09T10:55:16.852Z,46.91
2023-05-09T10:56:16.570Z,47.69
2023-05-09T10:57:16.596Z,43.27
2023-05-09T10:58:16.734Z,43.70
2023-05-09T10:59:16.634Z,45.55
2023-05-09T11:00:16.696Z,45.70
2023-05-09T11:01:16.731Z,46.20
2023-05-09T11:02:16.694Z,45.85
2023-05-09T11:03:16.770Z,46.27
2023-05-09T11:04:16.753Z,45.34
2023-05-09T11:05:16.895Z,45.43
2023-05-09T11:06:16.793Z,44.94
2023-05-09T11:07:16.813Z,46.37
2023-05-09T11:08:16.831Z,45.54
2023-05-09T11:09:16.853Z,44.31
2023-05-09T11:10:16.990Z,44.33
2023-05-09T11:11:16.898Z,45.51
2023-05-09T11:12:16.931Z,44.98
2023-05-09T11:13:17.005Z,46.41
2023-05-09T11:14:17.093Z,44.94
2023-05-09T11:15:17.064Z,45.14
2023-05-09T11:16:17.061Z,45.45
2023-05-09T11:17:17.028Z,46.56
2023-05-09T11:18:17.721Z,47.61
2023-05-09T11:19:17.080Z,46.95
2023-05-09T11:20:17.113Z,45.15
2023-05-09T11:21:17.115Z,44.58
2023-05-09T11:22:17.147Z,45.49
2023-05-09T11:23:17.187Z,45.39
2023-05-09T11:24:17.187Z,45.80
2023-05-09T11:25:17.485Z,45.13
2023-05-09T11:26:17.232Z,44.73
2023-05-09T11:27:17.253Z,45.39
2023-05-09T11:28:17.273Z,44.60
2023-05-09T11:29:17.295Z,46.17
2023-05-09T11:30:17.597Z,44.70
2023-05-09T11:31:17.355Z,45.17
2023-05-09T11:32:17.396Z,44.16
2023-05-09T11:33:17.391Z,45.31
2023-05-09T11:34:17.409Z,44.62
2023-05-09T11:35:17.784Z,44.41
2023-05-09T11:36:17.492Z,44.73
2023-05-09T11:37:17.473Z,44.73
2023-05-09T11:38:17.499Z,44.84
2023-05-09T11:39:17.516Z,45.83
2023-05-09T11:40:17.549Z,47.27
2023-05-09T11:41:17.577Z,46.30
2023-05-09T11:42:17.586Z,46.57
2023-05-09T11:43:17.613Z,45.98
2023-05-09T11:44:17.630Z,46.51
2023-05-09T11:45:17.866Z,47.64
2023-05-09T11:46:17.826Z,47.22
2023-05-09T11:47:17.691Z,47.12
2023-05-09T11:48:17.731Z,47.97
2023-05-09T11:49:17.758Z,48.54
2023-05-09T11:50:17.761Z,48.13
2023-05-09T11:51:17.786Z,48.61
2023-05-09T11:52:17.813Z,49.52
2023-05-09T11:53:17.831Z,49.43
2023-05-09T11:54:17.855Z,48.69
2023-05-09T11:55:18.213Z,47.83
2023-05-09T11:56:17.899Z,47.32
2023-05-09T11:57:17.929Z,47.79
2023-05-09T11:58:17.948Z,48.23
2023-05-09T11:59:17.964Z,48.45
2023-05-09T12:00:17.980Z,48.44
2023-05-09T12:01:18.007Z,48.89
2023-05-09T12:02:18.197Z,50.81
2023-05-09T12:03:18.172Z,47.78
2023-05-09T12:04:18.102Z,47.34
2023-05-09T12:05:18.124Z,46.65
2023-05-09T12:06:18.114Z,47.19
2023-05-09T12:07:18.132Z,47.41
2023-05-09T12:08:18.158Z,48.22
2023-05-09T12:09:18.175Z,47.06
2023-05-09T12:10:18.199Z,45.77
2023-05-09T12:11:18.234Z,45.53
2023-05-09T12:12:18.240Z,45.70
2023-05-09T12:13:18.291Z,44.94
2023-05-09T12:14:18.284Z,46.48
2023-05-09T12:15:19.258Z,46.34
2023-05-09T12:16:18.383Z,46.93
2023-05-09T12:17:18.349Z,47.72
2023-05-09T12:18:18.499Z,49.10
2023-05-09T12:19:18.382Z,49.97
2023-05-09T12:20:18.419Z,49.69
2023-05-09T12:21:18.492Z,49.06
2023-05-09T12:22:18.465Z,48.49
2023-05-09T12:23:18.476Z,47.12
2023-05-09T12:24:18.493Z,48.86
2023-05-09T12:25:18.511Z,47.83
2023-05-09T12:26:18.538Z,46.28
2023-05-09T12:27:18.565Z,47.05
2023-05-09T12:28:18.596Z,46.58
2023-05-09T12:29:18.603Z,47.16
2023-05-09T12:30:18.629Z,47.01
2023-05-09T12:31:18.718Z,46.82
2023-05-09T12:32:18.663Z,46.31
2023-05-09T12:33:18.679Z,47.09
2023-05-09T12:34:19.084Z,48.81
2023-05-09T12:35:18.718Z,49.22
2023-05-09T12:36:18.750Z,49.30
2023-05-09T12:37:18.758Z,47.34
2023-05-09T12:38:18.776Z,46.78
2023-05-09T12:39:18.799Z,44.15
2023-05-09T12:40:18.820Z,44.77
2023-05-09T12:41:35.014Z,43.34
2023-05-09T12:42:18.858Z,46.00
2023-05-09T12:43:18.887Z,46.38
2023-05-09T12:44:18.922Z,47.59
2023-05-09T12:45:19.099Z,47.00
2023-05-09T12:46:19.028Z,48.35
2023-05-09T12:47:19.046Z,45.61
2023-05-09T12:48:18.981Z,46.00
2023-05-09T12:49:19.009Z,45.69
2023-05-09T12:50:19.137Z,44.48
2023-05-09T12:51:19.049Z,45.28
2023-05-09T12:52:19.055Z,44.71